Time;durP1;ratioP1;P1;durP2;ratioP2;P2;SDS_P1;SDS_P2;PMS_P1;PMS_P2;Temp;Humidity;BMP_temperature;BMP_pressure;BME280_temperature;BME280_humidity;BME280_pressure;Samples;Min_cycle;Max_cycle;Signal;HPM_P1;HPM_P2
2023/07/06 00:01:50;;;;;;;7.30;5.30;;;;;;;17.47;100.00;97209.85;110457;1239;71237;-63
2023/07/06 00:04:22;;;;;;;7.70;5.10;;;;;;;17.46;100.00;97209.75;110399;1241;69062;-65
2023/07/06 00:06:52;;;;;;;7.80;5.90;;;;;;;17.44;100.00;97206.48;110320;1241;69306;-63
2023/07/06 00:09:25;;;;;;;8.40;5.50;;;;;;;17.41;100.00;97205.50;110508;1239;59661;-64
2023/07/06 00:11:55;;;;;;;7.40;5.30;;;;;;;17.40;100.00;97204.98;110379;1240;59764;-64
2023/07/06 00:14:26;;;;;;;6.80;5.10;;;;;;;17.38;100.00;97205.33;110334;1240;70667;-64
2023/07/06 00:17:10;;;;;;;7.50;5.60;;;;;;;17.35;100.00;97207.57;110290;1241;69200;-64
2023/07/06 00:19:42;;;;;;;5.90;4.70;;;;;;;17.34;100.00;97206.88;110444;1241;69902;-65
2023/07/06 00:22:13;;;;;;;7.40;5.00;;;;;;;17.31;100.00;97206.95;110363;1242;59680;-64
2023/07/06 00:24:46;;;;;;;7.50;5.40;;;;;;;17.28;100.00;97204.98;110439;1241;59795;-65
2023/07/06 00:27:17;;;;;;;8.80;5.40;;;;;;;17.25;100.00;97203.70;110377;1241;71357;-65
2023/07/06 00:30:04;;;;;;;8.40;6.10;;;;;;;17.24;100.00;97205.94;110318;1242;69470;-65
2023/07/06 00:32:35;;;;;;;7.40;5.80;;;;;;;17.22;100.00;97205.59;110357;1240;69123;-66
2023/07/06 00:35:07;;;;;;;8.30;6.10;;;;;;;17.20;100.00;97207.94;110343;1241;59733;-64
2023/07/06 00:37:38;;;;;;;7.80;5.70;;;;;;;17.18;100.00;97213.79;110285;1241;59615;-64
2023/07/06 00:40:13;;;;;;;8.20;6.00;;;;;;;17.16;100.00;97213.46;110419;1241;72014;-63
2023/07/06 00:42:44;;;;;;;8.20;5.90;;;;;;;17.13;100.00;97209.11;110277;1241;68508;-63
2023/07/06 00:45:16;;;;;;;10.10;6.80;;;;;;;17.09;100.00;97206.75;110337;1241;69846;-64
2023/07/06 00:47:59;;;;;;;9.20;6.40;;;;;;;17.06;100.00;97200.86;110371;1240;59744;-63
2023/07/06 00:50:33;;;;;;;8.30;6.00;;;;;;;17.04;100.00;97198.23;110289;1244;60126;-65
2023/07/06 00:53:12;;;;;;;9.40;6.50;;;;;;;17.00;100.00;97188.52;110306;1240;70239;-65
2023/07/06 00:55:43;;;;;;;10.10;6.50;;;;;;;16.96;100.00;97186.39;110294;1241;68435;-63
2023/07/06 00:58:42;;;;;;;8.20;5.60;;;;;;;16.94;100.00;97180.08;110109;1244;69206;-63
2023/07/06 01:01:21;;;;;;;8.20;6.60;;;;;;;16.90;100.00;97177.90;110316;1241;59750;-65
2023/07/06 01:03:55;;;;;;;9.20;6.10;;;;;;;16.87;100.00;97178.61;110272;1240;59811;-65
2023/07/06 01:06:39;;;;;;;7.30;5.80;;;;;;;16.85;100.00;97183.71;110303;1240;71517;-62
2023/07/06 01:09:10;;;;;;;8.90;6.30;;;;;;;16.82;100.00;97185.55;110314;1241;69095;-64
2023/07/06 01:11:44;;;;;;;6.70;5.20;;;;;;;16.77;100.00;97182.55;110278;1242;68527;-65
2023/07/06 01:14:15;;;;;;;8.20;5.60;;;;;;;16.73;100.00;97181.69;110208;1242;59605;-65
2023/07/06 01:17:11;;;;;;;7.20;5.40;;;;;;;16.71;100.00;97179.27;110211;1245;59738;-64
2023/07/06 01:20:20;;;;;;;8.20;5.80;;;;;;;16.69;100.00;97176.95;110239;1241;71444;-64
2023/07/06 01:23:24;;;;;;;8.60;6.60;;;;;;;16.68;100.00;97174.30;110310;1241;68506;-64
2023/07/06 01:26:15;;;;;;;9.00;6.70;;;;;;;16.56;100.00;97170.38;110285;1242;69951;-66
2023/07/06 01:28:54;;;;;;;9.10;6.70;;;;;;;16.53;100.00;97173.84;110377;1241;59665;-64
2023/07/06 01:32:02;;;;;;;9.80;7.50;;;;;;;16.42;100.00;97175.32;110431;1240;59756;-65
2023/07/06 01:35:24;;;;;;;9.90;7.40;;;;;;;16.39;100.00;97173.15;110137;1240;72002;-64
2023/07/06 01:37:57;;;;;;;9.60;7.10;;;;;;;16.40;100.00;97177.14;109903;1241;67643;-65
2023/07/06 01:40:28;;;;;;;8.60;6.40;;;;;;;16.40;100.00;97178.70;110338;1240;69119;-64
2023/07/06 01:42:59;;;;;;;7.80;6.00;;;;;;;16.44;100.00;97180.76;110370;1241;59692;-65
2023/07/06 01:45:35;;;;;;;8.00;6.00;;;;;;;16.37;100.00;97184.58;110362;1242;59738;-64
2023/07/06 01:48:12;;;;;;;7.30;5.90;;;;;;;16.37;100.00;97187.68;110212;1240;70634;-65
2023/07/06 01:51:01;;;;;;;10.30;6.60;;;;;;;16.34;100.00;97185.81;110368;1241;68501;-65
2023/07/06 01:53:40;;;;;;;11.70;6.70;;;;;;;16.39;100.00;97184.56;110334;1242;69963;-65
2023/07/06 01:56:39;;;;;;;10.60;7.30;;;;;;;16.51;100.00;97184.63;110381;1241;60136;-65
2023/07/06 01:59:17;;;;;;;9.90;6.10;;;;;;;16.51;100.00;97179.67;109655;1244;780476;-64
2023/07/06 02:02:00;;;;;;;6.90;6.10;;;;;;;16.51;100.00;97175.98;110391;1241;70517;-64
2023/07/06 02:04:34;;;;;;;8.70;6.90;;;;;;;16.50;100.00;97180.98;110435;1241;67798;-63
2023/07/06 02:07:06;;;;;;;9.30;7.00;;;;;;;16.49;100.00;97180.84;110215;1243;70243;-64
2023/07/06 02:09:48;;;;;;;8.90;6.80;;;;;;;16.48;100.00;97179.64;110227;1241;59683;-63
2023/07/06 02:12:19;;;;;;;9.10;6.10;;;;;;;16.50;100.00;97178.44;110313;1242;59611;-64
2023/07/06 02:14:53;;;;;;;9.40;6.70;;;;;;;16.53;100.00;97182.85;110386;1242;71253;-63
2023/07/06 02:17:24;;;;;;;7.60;6.20;;;;;;;16.56;100.00;97185.84;110398;1242;68244;-63
2023/07/06 02:19:55;;;;;;;9.20;6.70;;;;;;;16.59;100.00;97184.16;110373;1239;69194;-65
2023/07/06 02:22:28;;;;;;;8.20;6.50;;;;;;;16.60;100.00;97182.70;110387;1241;59602;-65
2023/07/06 02:24:59;;;;;;;9.40;6.60;;;;;;;16.61;100.00;97180.69;110248;1241;59728;-65
2023/07/06 02:27:30;;;;;;;7.10;6.20;;;;;;;16.59;100.00;97181.20;110230;1242;71313;-64
2023/07/06 02:30:00;;;;;;;7.20;5.50;;;;;;;16.60;100.00;97184.95;110267;1244;69214;-65
2023/07/06 02:32:31;;;;;;;6.80;5.30;;;;;;;16.60;100.00;97182.73;110218;1243;69152;-65
2023/07/06 02:35:02;;;;;;;7.60;6.30;;;;;;;16.57;100.00;97185.41;110229;1241;59706;-66
2023/07/06 02:37:34;;;;;;;8.10;7.00;;;;;;;16.56;100.00;97184.66;110168;1245;59689;-64
2023/07/06 02:40:10;;;;;;;8.30;6.50;;;;;;;16.57;100.00;97188.42;110376;1241;70418;-64
2023/07/06 02:42:41;;;;;;;8.50;6.50;;;;;;;16.59;100.00;97192.48;110343;1242;68232;-65
2023/07/06 02:45:12;;;;;;;9.60;7.10;;;;;;;16.59;100.00;97189.29;110231;1243;68429;-65
2023/07/06 02:47:43;;;;;;;11.10;7.50;;;;;;;16.56;100.00;97188.48;110241;1241;59751;-63
2023/07/06 02:50:14;;;;;;;8.90;6.70;;;;;;;16.55;100.00;97185.30;110186;1241;59736;-64
2023/07/06 02:52:44;;;;;;;9.40;6.40;;;;;;;16.51;100.00;97181.95;110196;1241;70623;-65
2023/07/06 02:55:14;;;;;;;9.10;6.70;;;;;;;16.51;100.00;97186.73;110323;1241;68563;-64
2023/07/06 02:57:44;;;;;;;9.70;7.00;;;;;;;16.51;100.00;97184.95;110221;1242;69714;-64
2023/07/06 03:00:17;;;;;;;10.20;7.90;;;;;;;16.50;100.00;97185.55;110344;1242;59760;-64
2023/07/06 03:02:48;;;;;;;9.50;6.80;;;;;;;16.49;100.00;97187.96;110451;1241;59670;-64
2023/07/06 03:05:22;;;;;;;8.20;6.20;;;;;;;16.49;100.00;97188.36;110194;1242;70798;-64
2023/07/06 03:07:54;;;;;;;8.90;5.80;;;;;;;16.53;100.00;97187.04;110202;1243;69260;-64
2023/07/06 03:10:25;;;;;;;6.90;5.40;;;;;;;16.57;100.00;97185.05;110425;1241;69728;-65
2023/07/06 03:12:57;;;;;;;8.70;6.10;;;;;;;16.61;100.00;97185.70;110173;1244;59730;-65
2023/07/06 03:15:28;;;;;;;7.90;5.50;;;;;;;16.66;100.00;97185.60;110457;1242;59741;-65
2023/07/06 03:18:00;;;;;;;7.30;5.50;;;;;;;16.70;100.00;97189.90;110260;1243;71283;-65
2023/07/06 03:20:32;;;;;;;8.00;6.30;;;;;;;16.73;100.00;97192.77;110472;1241;69285;-64
2023/07/06 03:23:03;;;;;;;8.40;6.30;;;;;;;16.76;100.00;97193.89;110454;1242;69874;-64
2023/07/06 03:25:33;;;;;;;7.10;5.70;;;;;;;16.80;100.00;97200.31;110323;1242;59753;-64
2023/07/06 03:28:03;;;;;;;9.00;6.80;;;;;;;16.85;100.00;97200.30;110446;1242;59643;-63
2023/07/06 03:30:33;;;;;;;7.00;5.80;;;;;;;16.86;100.00;97200.90;110578;1241;71973;-63
2023/07/06 03:33:03;;;;;;;;;;;;;;;16.87;100.00;97200.03;110252;1242;68544;-64
2023/07/06 03:35:34;;;;;;;8.40;6.40;;;;;;;16.91;100.00;97204.18;110520;1241;67530;-64
2023/07/06 03:38:04;;;;;;;7.20;5.60;;;;;;;16.94;100.00;97204.36;110454;1241;59743;-63
2023/07/06 03:40:34;;;;;;;10.30;6.80;;;;;;;17.00;100.00;97205.92;110495;1240;59742;-64
2023/07/06 03:43:06;;;;;;;7.30;5.80;;;;;;;17.05;100.00;97207.68;110620;1241;71947;-63
2023/07/06 03:45:36;;;;;;;6.30;5.10;;;;;;;17.10;100.00;97203.69;110609;1241;68845;-63
2023/07/06 03:48:07;;;;;;;9.90;5.90;;;;;;;17.13;100.00;97204.95;110268;1242;69870;-65
2023/07/06 03:50:38;;;;;;;9.60;6.90;;;;;;;17.14;100.00;97205.02;110553;1238;59737;-64
2023/07/06 03:53:08;;;;;;;7.80;5.40;;;;;;;17.18;100.00;97208.61;110326;1242;59724;-66
2023/07/06 03:55:40;;;;;;;8.60;6.40;;;;;;;17.22;100.00;97205.23;110469;1238;71382;-65
2023/07/06 03:58:10;;;;;;;7.00;5.30;;;;;;;17.28;100.00;97204.36;110396;1242;69652;-63
2023/07/06 04:00:39;;;;;;;7.00;5.60;;;;;;;17.35;100.00;97201.27;110189;1245;70244;-63
2023/07/06 04:03:08;;;;;;;9.60;6.10;;;;;;;17.41;100.00;97200.13;110373;1242;59590;-64
2023/07/06 04:05:47;;;;;;;9.00;5.90;;;;;;;17.48;100.00;97201.18;110488;1241;59728;-64
2023/07/06 04:08:22;;;;;;;7.40;5.70;;;;;;;17.57;100.00;97205.66;110388;1242;70724;-65
2023/07/06 04:10:52;;;;;;;10.10;6.40;;;;;;;17.64;100.00;97202.95;110559;1247;69846;-64
2023/07/06 04:13:22;;;;;;;7.10;6.10;;;;;;;17.72;100.00;97201.65;110480;1242;69133;-63
2023/07/06 04:15:53;;;;;;;8.30;6.50;;;;;;;17.77;100.00;97200.38;110650;1242;59717;-63
2023/07/06 04:18:24;;;;;;;8.30;6.10;;;;;;;17.81;100.00;97203.69;110550;1239;59676;-64
2023/07/06 04:20:54;;;;;;;9.50;6.50;;;;;;;17.84;100.00;97202.30;110558;1239;71464;-65
2023/07/06 04:23:24;;;;;;;8.20;6.70;;;;;;;17.89;100.00;97207.96;110558;1237;69117;-65
2023/07/06 04:25:54;;;;;;;9.30;6.00;;;;;;;17.86;100.00;97215.13;110614;1239;68811;-65
2023/07/06 04:28:25;;;;;;;8.20;5.80;;;;;;;17.87;100.00;97214.77;110612;1239;59722;-66
2023/07/06 04:30:54;;;;;;;7.10;5.10;;;;;;;17.86;100.00;97214.67;110524;1241;59694;-64
2023/07/06 04:33:24;;;;;;;8.20;4.80;;;;;;;17.93;100.00;97214.73;110507;1241;71328;-62
2023/07/06 04:35:54;;;;;;;6.10;4.60;;;;;;;18.00;100.00;97212.95;110380;1241;69803;-63
2023/07/06 04:38:26;;;;;;;7.60;5.60;;;;;;;18.06;100.00;97213.58;110596;1240;68510;-64
2023/07/06 04:40:56;;;;;;;6.40;4.90;;;;;;;18.14;100.00;97212.70;110493;1241;59681;-61
2023/07/06 04:43:27;;;;;;;6.50;4.90;;;;;;;18.25;100.00;97211.52;110389;1238;59667;-64
2023/07/06 04:45:57;;;;;;;7.80;5.60;;;;;;;18.37;100.00;97212.55;110406;1242;71943;-65
2023/07/06 04:48:27;;;;;;;7.40;5.50;;;;;;;18.43;100.00;97213.12;110337;1240;69399;-64
2023/07/06 04:50:57;;;;;;;6.00;5.30;;;;;;;18.56;100.00;97221.92;110372;1242;69414;-65
2023/07/06 04:53:26;;;;;;;;;;;;;;;18.68;100.00;97220.30;110467;1238;59738;-64
2023/07/06 04:55:59;;;;;;;7.00;5.20;;;;;;;18.79;100.00;97221.16;110458;1242;59714;-66
2023/07/06 04:58:29;;;;;;;5.70;5.00;;;;;;;18.89;100.00;97223.73;110392;1242;71219;-64
2023/07/06 05:01:07;;;;;;;6.20;5.20;;;;;;;19.02;100.00;97222.98;110430;1238;68745;-64
2023/07/06 05:03:37;;;;;;;7.30;5.20;;;;;;;19.10;100.00;97217.66;110296;1242;69827;-66
2023/07/06 05:06:09;;;;;;;;;;;;;;;19.14;100.00;97216.65;110442;1242;59722;-64
2023/07/06 05:08:45;;;;;;;5.80;5.20;;;;;;;19.19;100.00;97220.48;110561;1242;59594;-64
2023/07/06 05:11:15;;;;;;;6.60;4.50;;;;;;;19.35;100.00;97226.48;110489;1243;72153;-66
2023/07/06 05:13:45;;;;;;;5.30;4.70;;;;;;;19.50;100.00;97222.20;110386;1242;68451;-65
2023/07/06 05:16:15;;;;;;;6.80;4.70;;;;;;;19.64;100.00;97224.32;110395;1242;69264;-64
2023/07/06 05:18:44;;;;;;;5.60;4.70;;;;;;;19.75;100.00;97227.48;110397;1242;59742;-64
2023/07/06 05:21:14;;;;;;;6.10;4.70;;;;;;;19.84;100.00;97228.02;110523;1242;59675;-64
2023/07/06 05:23:43;;;;;;;7.00;4.80;;;;;;;19.92;100.00;97232.50;110572;1239;70664;-65
2023/07/06 05:26:12;;;;;;;5.60;4.90;;;;;;;19.97;100.00;97235.46;110528;1242;69677;-63
2023/07/06 05:28:42;;;;;;;7.80;5.50;;;;;;;20.10;100.00;97230.92;110483;1242;69248;-64
2023/07/06 05:31:10;;;;;;;6.70;4.70;;;;;;;20.19;100.00;97231.38;110351;1242;59784;-63
2023/07/06 05:33:39;;;;;;;6.50;4.90;;;;;;;20.29;100.00;97234.02;110358;1242;59633;-64
2023/07/06 05:36:09;;;;;;;6.40;5.10;;;;;;;20.39;100.00;97234.73;110520;1240;71977;-65
2023/07/06 05:38:38;;;;;;;6.10;5.10;;;;;;;20.43;100.00;97232.65;110436;1242;69790;-64
2023/07/06 05:41:07;;;;;;;7.20;5.20;;;;;;;20.46;100.00;97229.67;110454;1242;69885;-65
2023/07/06 05:43:36;;;;;;;6.90;4.90;;;;;;;20.54;100.00;97232.43;110505;1242;59749;-66
2023/07/06 05:46:05;;;;;;;6.90;5.20;;;;;;;20.56;100.00;97232.94;110487;1239;60005;-64
2023/07/06 05:48:39;;;;;;;7.00;5.20;;;;;;;20.66;100.00;97235.70;110385;1239;71410;-64
2023/07/06 05:51:08;;;;;;;7.50;5.20;;;;;;;20.73;100.00;97237.65;110383;1242;69862;-65
2023/07/06 05:53:37;;;;;;;6.90;5.30;;;;;;;20.75;100.00;97235.27;110371;1242;69231;-64
2023/07/06 05:56:06;;;;;;;5.40;4.90;;;;;;;20.93;99.95;97238.64;110289;1242;59675;-64
2023/07/06 05:58:37;;;;;;;6.10;4.60;;;;;;;21.11;100.00;97237.27;110468;1238;59708;-64
2023/07/06 06:01:07;;;;;;;5.10;4.40;;;;;;;21.27;100.00;97238.31;110555;1241;70852;-63
2023/07/06 06:03:37;;;;;;;5.30;4.30;;;;;;;21.47;98.97;97236.92;110615;1242;69651;-63
2023/07/06 06:06:10;;;;;;;7.00;4.60;;;;;;;21.57;96.22;97239.40;110583;1242;69843;-64
2023/07/06 06:08:40;;;;;;;6.60;4.80;;;;;;;21.75;95.09;97241.66;110397;1243;59660;-64
2023/07/06 06:11:10;;;;;;;5.90;4.70;;;;;;;21.87;93.87;97236.98;110438;1241;59801;-64
2023/07/06 06:13:39;;;;;;;;;;;;;;;21.94;93.89;97238.29;110593;1242;72003;-65
2023/07/06 06:16:11;;;;;;;4.50;4.00;;;;;;;22.07;93.57;97230.60;110541;1242;69058;-63
2023/07/06 06:18:44;;;;;;;5.50;4.40;;;;;;;22.34;92.52;97228.59;110592;1242;68934;-64
2023/07/06 06:21:13;;;;;;;4.80;4.30;;;;;;;22.70;92.29;97231.37;110513;1241;59932;-67
2023/07/06 06:23:42;;;;;;;6.30;5.10;;;;;;;22.75;86.26;97232.13;110456;1242;59715;-64
2023/07/06 06:26:11;;;;;;;4.80;4.30;;;;;;;22.52;85.92;97235.20;110367;1242;71963;-64
2023/07/06 06:28:41;;;;;;;6.50;4.70;;;;;;;22.60;85.77;97235.42;110494;1242;69833;-64
2023/07/06 06:31:12;;;;;;;6.00;5.00;;;;;;;22.69;87.48;97237.20;110475;1241;69082;-64
2023/07/06 06:33:41;;;;;;;5.70;4.80;;;;;;;22.70;86.23;97241.99;110495;1241;59695;-63
2023/07/06 06:36:12;;;;;;;5.80;5.20;;;;;;;22.57;86.07;97239.01;110494;1241;59669;-64
2023/07/06 06:38:41;;;;;;;5.70;4.40;;;;;;;22.46;87.15;97236.09;110459;1241;71360;-64
2023/07/06 06:41:11;;;;;;;5.50;4.50;;;;;;;22.50;87.29;97236.73;110633;1241;70081;-66
2023/07/06 06:43:44;;;;;;;6.40;4.60;;;;;;;22.63;86.04;97233.11;110538;1241;69731;-65
2023/07/06 06:46:14;;;;;;;5.30;4.60;;;;;;;22.68;84.92;97230.21;110485;1238;59633;-65
2023/07/06 06:48:43;;;;;;;5.00;4.30;;;;;;;22.86;85.77;97229.11;110566;1241;59635;-66
2023/07/06 06:51:12;;;;;;;7.00;4.70;;;;;;;22.99;84.59;97228.84;110421;1241;71307;-64
2023/07/06 06:53:41;;;;;;;5.20;4.10;;;;;;;22.88;84.18;97232.60;110607;1242;69646;-65
2023/07/06 06:56:10;;;;;;;6.20;4.60;;;;;;;23.12;84.19;97233.20;110591;1242;69687;-66
2023/07/06 06:58:41;;;;;;;6.10;4.20;;;;;;;23.21;83.05;97230.55;110600;1238;59727;-64
2023/07/06 07:01:15;;;;;;;5.90;4.40;;;;;;;23.44;83.15;97231.58;110584;1242;59634;-64
2023/07/06 07:03:45;;;;;;;5.80;3.90;;;;;;;23.77;81.69;97235.92;110433;1238;71962;-66
2023/07/06 07:06:14;;;;;;;6.00;4.60;;;;;;;23.99;79.81;97239.41;110558;1242;69190;-64
2023/07/06 07:08:45;;;;;;;4.20;3.80;;;;;;;24.17;77.28;97238.61;110335;1240;69880;-66
2023/07/06 07:11:13;;;;;;;6.30;4.10;;;;;;;24.01;72.97;97239.34;110503;1242;59705;-66
2023/07/06 07:13:52;;;;;;;5.10;4.30;;;;;;;24.32;74.60;97242.59;110585;1242;59682;-64
2023/07/06 07:16:23;;;;;;;4.60;4.10;;;;;;;24.38;75.63;97243.34;110419;1240;71400;-64
2023/07/06 07:18:54;;;;;;;5.10;4.60;;;;;;;24.37;75.88;97242.81;110381;1239;69553;-64
2023/07/06 07:21:23;;;;;;;4.70;4.20;;;;;;;24.44;75.75;97239.70;110418;1242;69863;-64
2023/07/06 07:23:52;;;;;;;4.30;3.90;;;;;;;24.65;75.77;97239.33;110444;1242;59734;-64
2023/07/06 07:26:23;;;;;;;5.20;4.10;;;;;;;24.93;75.21;97244.92;110603;1241;59672;-64
2023/07/06 07:28:53;;;;;;;4.50;3.90;;;;;;;25.21;73.96;97244.23;110438;1241;72127;-64
2023/07/06 07:31:25;;;;;;;5.30;4.00;;;;;;;25.44;74.03;97244.17;110418;1242;69040;-64
2023/07/06 07:33:54;;;;;;;5.00;4.20;;;;;;;25.63;72.44;97242.02;110515;1238;69230;-66
2023/07/06 07:36:23;;;;;;;5.00;4.00;;;;;;;25.75;72.04;97240.69;110525;1240;59763;-66
2023/07/06 07:38:56;;;;;;;5.10;4.60;;;;;;;25.55;70.17;97241.18;110568;1249;59673;-62
2023/07/06 07:41:25;;;;;;;5.30;4.00;;;;;;;25.13;70.84;97243.73;110522;1242;71958;-65
2023/07/06 07:43:54;;;;;;;;;;;;;;;25.26;72.07;97240.27;110400;1241;69725;-65
2023/07/06 07:46:24;;;;;;;5.00;4.10;;;;;;;25.38;71.83;97238.85;110331;1241;69844;-64
2023/07/06 07:48:53;;;;;;;4.30;3.90;;;;;;;25.34;71.79;97235.97;110461;1241;59731;-64
2023/07/06 07:51:26;;;;;;;5.10;4.10;;;;;;;25.51;71.98;97234.25;110517;1242;59623;-66
2023/07/06 07:53:56;;;;;;;4.00;3.60;;;;;;;25.35;70.92;97233.90;110442;1241;71988;-64
2023/07/06 07:56:27;;;;;;;5.30;4.10;;;;;;;25.39;71.18;97238.23;110369;1241;69797;-66
2023/07/06 07:58:55;;;;;;;5.80;4.20;;;;;;;25.50;70.14;97236.30;110608;1239;69235;-65
2023/07/06 08:01:25;;;;;;;6.30;4.90;;;;;;;25.76;69.79;97238.08;110567;1242;60143;-65
2023/07/06 08:03:57;;;;;;;5.40;4.80;;;;;;;25.84;68.25;97241.40;110527;1242;59683;-66
2023/07/06 08:06:26;;;;;;;5.70;3.80;;;;;;;25.82;66.07;97241.91;110590;1238;71965;-65
2023/07/06 08:08:55;;;;;;;;;;;;;;;26.03;66.93;97239.23;110586;1242;69214;-63
2023/07/06 08:11:24;;;;;;;5.30;4.50;;;;;;;26.12;66.52;97233.52;110512;1238;69663;-64
2023/07/06 08:13:53;;;;;;;7.90;5.00;;;;;;;26.40;66.97;97235.43;110547;1241;59640;-64
2023/07/06 08:16:24;;;;;;;6.90;5.00;;;;;;;26.36;65.47;97233.73;110605;1241;59670;-63
2023/07/06 08:18:55;;;;;;;6.20;4.90;;;;;;;26.07;64.95;97233.26;110563;1242;71935;-64
2023/07/06 08:21:44;;;;;;;5.50;4.30;;;;;;;26.05;64.98;97231.42;110583;1242;69810;-64
2023/07/06 08:24:19;;;;;;;7.40;4.70;;;;;;;26.46;65.51;97229.46;110474;1243;69831;-65
2023/07/06 08:26:49;;;;;;;6.90;5.20;;;;;;;26.56;65.54;97226.71;110204;1245;59719;-64
2023/07/06 08:29:18;;;;;;;5.00;4.50;;;;;;;26.44;65.82;97226.51;110519;1242;59678;-64
2023/07/06 08:31:49;;;;;;;5.40;4.90;;;;;;;26.46;65.89;97226.54;110587;1238;71820;-64
2023/07/06 08:34:18;;;;;;;4.50;4.10;;;;;;;26.55;65.51;97226.16;110637;1242;68319;-64
2023/07/06 08:36:49;;;;;;;5.80;5.20;;;;;;;26.70;64.17;97226.17;110549;1241;69904;-65
2023/07/06 08:39:18;;;;;;;5.20;4.70;;;;;;;26.87;64.93;97227.55;110463;1241;60142;-65
2023/07/06 08:41:49;;;;;;;5.40;4.80;;;;;;;26.84;65.50;97227.90;110482;1242;59672;-65
2023/07/06 08:44:19;;;;;;;6.90;5.00;;;;;;;26.82;64.50;97225.65;110538;1238;71308;-63
2023/07/06 08:46:49;;;;;;;6.40;5.00;;;;;;;27.02;65.18;97227.06;110568;1242;69809;-64
2023/07/06 08:49:22;;;;;;;7.20;5.70;;;;;;;27.06;65.15;97225.82;110450;1242;69872;-67
2023/07/06 08:51:52;;;;;;;5.50;4.90;;;;;;;27.12;64.00;97227.55;110474;1241;59654;-65
2023/07/06 08:54:23;;;;;;;5.20;4.70;;;;;;;27.13;63.78;97227.70;110473;1242;59685;-65
2023/07/06 08:56:53;;;;;;;7.80;6.70;;;;;;;27.11;63.79;97232.34;110441;1239;71954;-66
2023/07/06 08:59:40;;;;;;;8.20;6.30;;;;;;;27.17;63.06;97235.94;110557;1242;69669;-65
2023/07/06 09:02:20;;;;;;;9.10;6.80;;;;;;;27.31;63.01;97238.63;110506;1242;69267;-63
2023/07/06 09:04:51;;;;;;;9.60;6.60;;;;;;;27.58;63.05;97238.25;110504;1241;59739;-65
2023/07/06 09:07:36;;;;;;;6.30;5.20;;;;;;;27.75;62.89;97238.55;110414;1242;59730;-64
2023/07/06 09:10:19;;;;;;;9.40;7.40;;;;;;;27.69;62.33;97241.42;110447;1241;70480;-64
2023/07/06 09:13:11;;;;;;;8.30;6.80;;;;;;;28.00;60.87;97234.83;110471;1242;69645;-65
2023/07/06 09:15:44;;;;;;;8.90;7.40;;;;;;;28.34;59.48;97232.60;110468;1243;68773;-65
2023/07/06 09:18:15;;;;;;;8.60;6.70;;;;;;;28.50;58.99;97233.45;110429;1242;59702;-66
2023/07/06 09:20:46;;;;;;;6.40;5.10;;;;;;;28.69;59.40;97233.26;110409;1242;59708;-64
2023/07/06 09:23:17;;;;;;;6.50;5.30;;;;;;;28.87;58.63;97230.72;110565;1241;71354;-65
2023/07/06 09:25:47;;;;;;;6.70;6.00;;;;;;;29.02;56.70;97234.02;110490;1242;69200;-64
2023/07/06 09:28:25;;;;;;;5.40;4.80;;;;;;;28.88;56.17;97229.35;110474;1242;69325;-65
2023/07/06 09:31:16;;;;;;;8.40;7.20;;;;;;;29.22;56.31;97229.11;110564;1242;59670;-65
2023/07/06 09:33:48;;;;;;;10.80;8.70;;;;;;;29.64;55.01;97223.64;110523;1241;59746;-64
2023/07/06 09:36:22;;;;;;;6.80;6.20;;;;;;;29.69;53.97;97222.33;110556;1240;70427;-64
2023/07/06 09:38:52;;;;;;;9.80;8.70;;;;;;;29.44;55.10;97221.29;110560;1240;69840;-65
2023/07/06 09:41:24;;;;;;;8.80;7.80;;;;;;;29.12;56.14;97220.14;110522;1242;69200;-65
2023/07/06 09:43:59;;;;;;;13.90;11.70;;;;;;;29.30;56.06;97215.17;110597;1240;59732;-65
2023/07/06 09:46:35;;;;;;;9.10;8.00;;;;;;;29.62;54.50;97215.29;110541;1242;59679;-65
2023/07/06 09:49:20;;;;;;;13.30;11.80;;;;;;;29.86;54.13;97213.41;110495;1242;71966;-63
2023/07/06 09:52:00;;;;;;;12.90;11.60;;;;;;;30.46;51.04;97208.58;110406;1241;69918;-64
2023/07/06 09:54:52;;;;;;;9.50;8.20;;;;;;;30.11;51.74;97205.92;110532;1241;69857;-64
2023/07/06 09:57:30;;;;;;;10.40;9.30;;;;;;;29.71;52.03;97210.69;110613;1242;59664;-65
2023/07/06 10:00:00;;;;;;;9.30;8.30;;;;;;;29.82;50.83;97204.45;110487;1242;59747;-64
2023/07/06 10:02:57;;;;;;;7.20;6.40;;;;;;;29.27;52.96;97203.59;110566;1241;71996;-66
2023/07/06 10:05:45;;;;;;;5.40;4.90;;;;;;;29.11;51.39;97201.33;110643;1238;67606;-66
2023/07/06 10:08:32;;;;;;;5.20;4.70;;;;;;;28.90;51.60;97203.63;110558;1243;69442;-66
2023/07/06 10:11:03;;;;;;;6.50;5.60;;;;;;;28.52;52.41;97197.23;110591;1242;59775;-65
2023/07/06 10:13:51;;;;;;;6.00;5.40;;;;;;;28.27;52.75;97197.92;110539;1242;59671;-65
2023/07/06 10:16:48;;;;;;;6.80;4.90;;;;;;;28.25;52.61;97197.11;110473;1242;71835;-65
2023/07/06 10:19:38;;;;;;;5.40;4.90;;;;;;;28.07;52.38;97195.44;110472;1242;69812;-65
2023/07/06 10:22:33;;;;;;;6.80;5.20;;;;;;;28.04;52.71;97195.31;110447;1248;69859;-66
2023/07/06 10:25:09;;;;;;;5.80;4.70;;;;;;;27.67;52.79;97190.30;110609;1242;59692;-65
2023/07/06 10:27:45;;;;;;;6.00;5.40;;;;;;;27.77;52.57;97188.30;110431;1241;60067;-66
2023/07/06 10:30:38;;;;;;;6.20;4.70;;;;;;;27.56;54.01;97190.73;110408;1242;71941;-66
2023/07/06 10:33:17;;;;;;;5.00;4.40;;;;;;;28.13;53.70;97181.04;110423;1241;69284;-65
2023/07/06 10:35:50;;;;;;;5.70;5.20;;;;;;;28.57;52.55;97179.61;110484;1240;69250;-66
2023/07/06 10:38:20;;;;;;;6.00;5.40;;;;;;;28.98;51.35;97180.64;110585;1242;59693;-65
2023/07/06 10:41:12;;;;;;;6.00;5.30;;;;;;;28.97;51.02;97181.28;110435;1242;59709;-67
2023/07/06 10:43:48;;;;;;;5.90;4.90;;;;;;;29.33;50.80;97177.40;110197;1238;70743;-64
2023/07/06 10:46:33;;;;;;;5.10;4.50;;;;;;;29.15;49.93;97176.20;110371;1238;69775;-66
2023/07/06 10:49:18;;;;;;;4.60;4.00;;;;;;;29.65;50.24;97169.83;110399;1238;69181;-65
2023/07/06 10:51:50;;;;;;;6.70;5.90;;;;;;;30.29;50.88;97166.05;110406;1242;60078;-67
2023/07/06 10:54:31;;;;;;;6.00;5.40;;;;;;;30.51;47.90;97160.55;110523;1241;59741;-65
2023/07/06 10:57:10;;;;;;;6.10;5.50;;;;;;;29.88;48.77;97159.30;110504;1241;71919;-65
2023/07/06 10:59:44;;;;;;;9.90;5.70;;;;;;;29.69;49.35;97164.98;110494;1245;69804;-67
2023/07/06 11:02:15;;;;;;;8.30;6.30;;;;;;;29.96;49.02;97157.56;110440;1242;69262;-66
2023/07/06 11:05:07;;;;;;;5.50;4.90;;;;;;;29.99;48.33;97157.77;110416;1242;59748;-65
2023/07/06 11:07:45;;;;;;;6.20;5.10;;;;;;;30.24;49.25;97154.46;110487;1238;59741;-65
2023/07/06 11:10:22;;;;;;;5.30;4.80;;;;;;;30.92;49.08;97154.18;110545;1241;71336;-64
2023/07/06 11:13:16;;;;;;;5.30;4.80;;;;;;;31.34;47.02;97155.82;110479;1241;69759;-65
2023/07/06 11:15:51;;;;;;;6.60;5.90;;;;;;;31.53;47.41;97153.91;110448;1242;69841;-66
2023/07/06 11:18:27;;;;;;;5.80;5.20;;;;;;;31.76;46.64;97157.21;110398;1242;59667;-65
2023/07/06 11:21:02;;;;;;;8.40;5.20;;;;;;;31.47;46.87;97155.23;110491;1242;60132;-64
2023/07/06 11:23:37;;;;;;;6.00;5.50;;;;;;;31.11;47.44;97152.81;110588;1242;71408;-66
2023/07/06 11:26:25;;;;;;;7.00;5.00;;;;;;;30.74;49.08;97155.54;110642;1241;68892;-66
2023/07/06 11:28:55;;;;;;;5.90;5.00;;;;;;;30.47;49.68;97155.42;110520;1242;69910;-65
2023/07/06 11:31:45;;;;;;;6.30;4.70;;;;;;;29.73;52.06;97155.39;110399;1242;59737;-65
2023/07/06 11:34:25;;;;;;;6.10;4.90;;;;;;;29.43;52.91;97158.98;110495;1238;59726;-65
2023/07/06 11:37:12;;;;;;;6.80;6.10;;;;;;;29.04;53.52;97160.33;110425;1240;71978;-66
2023/07/06 11:39:40;;;;;;;7.60;6.30;;;;;;;28.83;57.17;97156.17;110593;1241;70263;-65
2023/07/06 11:42:47;;;;;;;6.20;5.20;;;;;;;28.89;56.94;97152.77;110558;1243;69103;-65
2023/07/06 11:45:45;;;;;;;5.20;4.50;;;;;;;29.16;56.15;97145.84;110593;1242;59732;-66
2023/07/06 11:48:52;;;;;;;7.10;5.90;;;;;;;29.62;55.22;97140.22;110618;1242;59662;-66
2023/07/06 11:51:22;;;;;;;7.30;6.50;;;;;;;30.04;55.19;97134.70;110503;1242;71945;-66
2023/07/06 11:53:59;;;;;;;7.50;6.70;;;;;;;29.93;53.25;97134.55;110405;1241;69810;-65
2023/07/06 11:59:37;;;;;;;8.60;7.80;;;;;;;29.98;53.52;97130.28;110513;1240;59789;-66